createdAt,value
2023-10-21T00:02:10.174Z,37.80
2023-10-21T00:04:45.996Z,37.68
2023-10-21T00:07:18.011Z,37.74
2023-10-21T00:09:50.190Z,37.97
2023-10-21T00:12:22.533Z,37.42
2023-10-21T00:14:54.013Z,37.42
2023-10-21T00:17:26.139Z,37.41
2023-10-21T00:20:01.399Z,37.20
2023-10-21T00:22:32.544Z,37.56
2023-10-21T00:25:04.535Z,37.83
2023-10-21T00:27:37.053Z,38.01
2023-10-21T00:30:09.925Z,37.80
2023-10-21T00:32:41.917Z,38.16
2023-10-21T00:35:16.757Z,38.85
2023-10-21T00:37:48.276Z,37.86
2023-10-21T00:40:20.397Z,36.17
2023-10-21T00:42:51.626Z,34.11
2023-10-21T00:45:22.816Z,33.44
2023-10-21T00:47:54.471Z,31.73
2023-10-21T00:50:28.502Z,30.84
2023-10-21T00:52:59.720Z,29.03
2023-10-21T00:55:31.793Z,27.96
2023-10-21T00:58:04.045Z,27.54
2023-10-21T01:00:35.169Z,26.44
2023-10-21T01:03:06.959Z,26.31
2023-10-21T01:05:41.582Z,26.89
2023-10-21T01:08:13.701Z,27.53
2023-10-21T01:10:45.911Z,27.68
2023-10-21T01:13:17.472Z,28.37
2023-10-21T01:15:49.155Z,29.38
2023-10-21T01:18:22.349Z,29.46
2023-10-21T01:20:59.701Z,30.05
2023-10-21T01:23:33.819Z,30.50
2023-10-21T01:26:05.063Z,30.97
2023-10-21T01:28:36.823Z,31.72
2023-10-21T01:31:08.999Z,32.31
2023-10-21T01:33:40.135Z,32.42
2023-10-21T01:36:11.555Z,33.24
2023-10-21T01:38:46.168Z,33.00
2023-10-21T01:41:17.366Z,32.58
2023-10-21T01:43:49.496Z,32.56
2023-10-21T01:46:21.806Z,32.31
2023-10-21T01:48:54.304Z,33.00
2023-10-21T01:51:25.931Z,32.30
2023-10-21T01:53:59.890Z,32.29
2023-10-21T01:56:31.769Z,32.27
2023-10-21T01:59:03.964Z,32.61
2023-10-21T02:01:36.492Z,32.37
2023-10-21T02:04:09.317Z,32.25
2023-10-21T02:06:40.915Z,32.86
2023-10-21T02:09:15.110Z,32.39
2023-10-21T02:11:46.742Z,32.35
2023-10-21T02:14:18.555Z,32.79
2023-10-21T02:16:50.422Z,32.26
2023-10-21T02:19:22.069Z,32.43
2023-10-21T02:21:53.605Z,32.55
2023-10-21T02:24:27.684Z,32.28
2023-10-21T02:26:58.550Z,32.34
2023-10-21T02:29:31.248Z,32.45
2023-10-21T02:32:02.302Z,32.75
2023-10-21T02:34:34.749Z,32.88
2023-10-21T02:37:06.345Z,33.08
2023-10-21T02:39:40.889Z,32.63
2023-10-21T02:42:14.422Z,32.62
2023-10-21T02:44:46.672Z,32.04
2023-10-21T02:47:18.461Z,31.93
2023-10-21T02:49:50.339Z,31.58
2023-10-21T02:52:23.241Z,31.47
2023-10-21T02:54:57.829Z,32.27
2023-10-21T02:57:29.032Z,32.20
2023-10-21T03:00:01.336Z,32.26
2023-10-21T03:02:32.739Z,31.62
2023-10-21T03:05:04.538Z,31.58
2023-10-21T03:07:37.287Z,31.57
2023-10-21T03:10:14.089Z,32.08
2023-10-21T03:12:45.325Z,31.64
2023-10-21T03:15:16.643Z,31.67
2023-10-21T03:17:48.668Z,31.67
2023-10-21T03:20:20.870Z,31.84
2023-10-21T03:22:52.759Z,31.87
2023-10-21T03:25:26.186Z,32.04
2023-10-21T03:27:58.005Z,32.23
2023-10-21T03:30:29.612Z,31.93
2023-10-21T03:33:02.492Z,32.46
2023-10-21T03:35:32.969Z,31.98
2023-10-21T03:38:05.563Z,32.71
2023-10-21T03:40:39.824Z,32.52
2023-10-21T03:43:11.112Z,32.58
2023-10-21T03:45:42.755Z,32.81
2023-10-21T03:48:15.127Z,33.01
2023-10-21T03:50:47.018Z,33.51
2023-10-21T03:53:19.188Z,33.57
2023-10-21T03:55:53.660Z,33.92
2023-10-21T03:58:25.760Z,33.98
2023-10-21T04:00:59.438Z,33.61
2023-10-21T04:03:31.264Z,34.20
2023-10-21T04:06:02.862Z,33.94
2023-10-21T04:08:35.430Z,34.01
2023-10-21T04:11:09.965Z,34.11
2023-10-21T04:13:40.264Z,33.59
2023-10-21T04:16:10.662Z,33.40
2023-10-21T04:18:42.108Z,33.23
2023-10-21T04:21:13.625Z,33.17
2023-10-21T04:23:45.437Z,32.97
2023-10-21T04:26:21.435Z,33.44
2023-10-21T04:28:53.604Z,32.96
2023-10-21T04:31:26.029Z,33.11
2023-10-21T04:33:57.480Z,32.54
2023-10-21T04:36:28.736Z,32.66
2023-10-21T04:38:59.787Z,32.79
2023-10-21T04:41:32.904Z,32.46
2023-10-21T04:44:03.465Z,32.63
2023-10-21T04:46:33.995Z,32.00
2023-10-21T04:49:05.792Z,32.27
2023-10-21T04:51:36.454Z,32.37
2023-10-21T04:54:07.643Z,32.30
2023-10-21T04:56:41.412Z,32.35
2023-10-21T04:59:12.256Z,32.54
2023-10-21T05:01:42.921Z,32.59
2023-10-21T05:04:14.712Z,32.53
2023-10-21T05:06:46.589Z,32.34
2023-10-21T05:09:18.486Z,32.86
2023-10-21T05:11:52.093Z,33.36
2023-10-21T05:14:22.514Z,33.28
2023-10-21T05:16:53.662Z,33.68
2023-10-21T05:19:28.891Z,33.62
2023-10-21T05:21:59.527Z,34.35
2023-10-21T05:24:29.884Z,34.31
2023-10-21T05:27:02.928Z,34.86
2023-10-21T05:29:33.344Z,35.12
2023-10-21T05:32:04.236Z,36.42
2023-10-21T05:34:35.274Z,35.84
2023-10-21T05:37:05.885Z,36.74
2023-10-21T05:39:36.395Z,36.46
2023-10-21T05:42:10.868Z,36.84
2023-10-21T05:44:48.988Z,37.07
2023-10-21T05:47:20.024Z,37.03
2023-10-21T05:49:50.571Z,37.89
2023-10-21T05:52:21.180Z,37.94
2023-10-21T05:54:51.394Z,38.22
2023-10-21T05:57:24.535Z,38.17
2023-10-21T05:59:55.074Z,38.06
2023-10-21T06:02:25.436Z,37.96
2023-10-21T06:04:55.778Z,38.34
2023-10-21T06:07:26.423Z,37.96
2023-10-21T06:09:57.288Z,37.97
2023-10-21T06:12:30.807Z,37.74
2023-10-21T06:15:02.110Z,37.71
2023-10-21T06:17:37.284Z,37.65
2023-10-21T06:20:09.113Z,37.23
2023-10-21T06:22:40.083Z,36.97
2023-10-21T06:25:12.085Z,36.43
2023-10-21T06:27:45.589Z,36.19
2023-10-21T06:30:16.744Z,36.40
2023-10-21T06:32:48.145Z,36.22
2023-10-21T06:35:18.622Z,35.58
2023-10-21T06:37:50.282Z,35.47
2023-10-21T06:40:31.808Z,34.88
2023-10-21T06:43:17.052Z,34.87
2023-10-21T06:45:49.496Z,34.52
2023-10-21T06:48:22.158Z,34.16
2023-10-21T06:50:54.429Z,33.65
2023-10-21T06:53:25.306Z,33.13
2023-10-21T06:55:56.081Z,29.94
2023-10-21T06:58:31.078Z,29.85
2023-10-21T07:01:02.970Z,26.69
2023-10-21T07:03:33.528Z,26.36
2023-10-21T07:06:04.102Z,24.30
2023-10-21T07:08:34.536Z,23.51
2023-10-21T07:11:04.951Z,23.15
2023-10-21T07:13:38.108Z,22.85
2023-10-21T07:16:12.505Z,22.34
2023-10-21T07:18:43.712Z,22.76
2023-10-21T07:21:14.512Z,22.34
2023-10-21T07:23:46.518Z,21.18
2023-10-21T07:26:18.133Z,21.10
2023-10-21T07:28:51.929Z,21.13
2023-10-21T07:31:23.094Z,20.88
2023-10-21T07:33:55.091Z,20.27
2023-10-21T07:36:26.706Z,19.80
2023-10-21T07:38:58.978Z,20.15
2023-10-21T07:41:31.053Z,19.89
2023-10-21T07:44:05.945Z,20.45
2023-10-21T07:46:37.122Z,20.16
2023-10-21T07:49:08.974Z,19.81
2023-10-21T07:51:40.161Z,19.51
2023-10-21T07:54:14.000Z,20.07
2023-10-21T07:56:47.626Z,20.18
2023-10-21T07:59:22.976Z,20.29
2023-10-21T08:01:56.002Z,20.19
2023-10-21T08:04:27.686Z,19.98
2023-10-21T08:06:59.294Z,19.61
2023-10-21T08:09:30.175Z,20.77
2023-10-21T08:12:01.401Z,20.46
2023-10-21T08:14:35.322Z,20.37
2023-10-21T08:17:07.196Z,21.40
2023-10-21T08:19:38.976Z,20.79
2023-10-21T08:22:10.574Z,20.62
2023-10-21T08:24:43.379Z,20.35
2023-10-21T08:27:15.623Z,20.63
2023-10-21T08:29:50.106Z,20.66
2023-10-21T08:32:21.019Z,20.21
2023-10-21T08:34:52.605Z,20.72
2023-10-21T08:37:23.640Z,21.14
2023-10-21T08:39:54.996Z,20.48
2023-10-21T08:42:48.128Z,19.10
2023-10-21T08:45:23.441Z,20.14
2023-10-21T08:47:55.291Z,19.62
2023-10-21T08:50:26.439Z,20.43
2023-10-21T08:52:59.599Z,20.15
2023-10-21T08:55:31.177Z,19.56
2023-10-21T08:58:02.413Z,19.98
2023-10-21T09:00:36.876Z,19.63
2023-10-21T09:03:10.720Z,19.31
2023-10-21T09:06:05.383Z,19.09
2023-10-21T09:08:36.059Z,19.30
2023-10-21T09:11:08.753Z,19.57
2023-10-21T09:13:39.480Z,19.12
2023-10-21T09:16:25.699Z,19.08
2023-10-21T09:18:59.819Z,18.97
2023-10-21T09:21:40.962Z,19.28
2023-10-21T09:24:12.804Z,19.23
2023-10-21T09:26:43.869Z,19.32
2023-10-21T09:29:14.955Z,19.32
2023-10-21T09:31:53.371Z,19.21
2023-10-21T09:34:29.380Z,19.41
2023-10-21T09:37:01.172Z,19.53
2023-10-21T09:39:34.952Z,18.69
2023-10-21T09:42:06.221Z,19.39
2023-10-21T09:44:39.876Z,19.80
2023-10-21T09:47:16.635Z,19.04
2023-10-21T09:49:47.583Z,20.19
2023-10-21T09:52:19.892Z,19.29
2023-10-21T09:54:52.704Z,19.07
2023-10-21T09:57:24.102Z,19.49
2023-10-21T09:59:57.818Z,19.36
2023-10-21T10:02:31.423Z,19.12
2023-10-21T10:05:03.408Z,19.50
2023-10-21T10:07:40.937Z,19.55
2023-10-21T10:10:14.910Z,19.08
2023-10-21T10:12:48.580Z,19.22
2023-10-21T10:15:35.818Z,18.15
2023-10-21T10:18:10.198Z,18.74
2023-10-21T10:20:49.955Z,18.14
2023-10-21T10:23:24.350Z,18.56
2023-10-21T10:25:56.190Z,17.88
2023-10-21T10:28:28.988Z,18.95
2023-10-21T10:31:02.297Z,18.47
2023-10-21T10:33:35.542Z,17.94
2023-10-21T10:36:07.956Z,18.28
2023-10-21T10:38:46.946Z,18.28
2023-10-21T10:41:20.509Z,17.37
2023-10-21T10:43:53.981Z,18.03
2023-10-21T10:46:25.364Z,17.65
2023-10-21T10:49:00.757Z,17.28
2023-10-21T10:51:32.559Z,17.61
2023-10-21T10:54:04.946Z,17.60
2023-10-21T10:56:45.633Z,17.13
2023-10-21T10:59:19.372Z,17.02
2023-10-21T11:02:02.721Z,16.92
2023-10-21T11:04:36.626Z,16.98
2023-10-21T11:07:11.115Z,17.81
2023-10-21T11:09:41.861Z,16.71
2023-10-21T11:12:12.529Z,17.19
2023-10-21T11:14:43.737Z,17.08
2023-10-21T11:17:15.050Z,17.33
2023-10-21T11:19:48.755Z,16.22
2023-10-21T11:22:27.090Z,17.08
2023-10-21T11:24:57.775Z,16.62
2023-10-21T11:27:29.012Z,16.40
2023-10-21T11:30:00.392Z,16.53
2023-10-21T11:32:32.563Z,16.16
2023-10-21T11:35:11.111Z,16.07
2023-10-21T11:37:42.083Z,16.24
2023-10-21T11:40:17.395Z,16.32
2023-10-21T11:43:01.847Z,15.52
2023-10-21T11:45:33.740Z,15.30
2023-10-21T11:48:10.993Z,16.28
2023-10-21T11:50:46.458Z,15.75
2023-10-21T11:53:17.620Z,15.65
2023-10-21T11:56:00.495Z,16.20
2023-10-21T11:58:43.858Z,15.55
2023-10-21T12:01:27.274Z,15.47
2023-10-21T12:04:10.127Z,15.48
2023-10-21T12:06:55.800Z,15.41
2023-10-21T12:09:44.026Z,15.92
2023-10-21T12:12:41.559Z,15.92
2023-10-21T12:15:25.174Z,15.19
2023-10-21T12:18:11.232Z,15.20
2023-10-21T12:21:04.114Z,15.22
2023-10-21T12:24:01.466Z,15.92
2023-10-21T12:26:46.974Z,15.84
2023-10-21T12:29:35.384Z,16.40
2023-10-21T12:32:18.216Z,16.39
2023-10-21T12:35:01.546Z,15.81
2023-10-21T12:37:53.711Z,16.17
2023-10-21T12:40:32.685Z,16.62
2023-10-21T12:43:15.092Z,16.09
2023-10-21T12:45:50.878Z,16.33
2023-10-21T12:48:22.036Z,16.88
2023-10-21T12:50:56.181Z,16.81
2023-10-21T12:53:27.497Z,16.67
2023-10-21T12:56:00.885Z,16.62
2023-10-21T12:58:31.168Z,17.00
2023-10-21T13:01:02.508Z,17.45
2023-10-21T13:03:34.134Z,16.87
2023-10-21T13:06:04.959Z,17.09
2023-10-21T13:08:35.459Z,17.98
2023-10-21T13:11:09.864Z,17.53
2023-10-21T13:13:40.635Z,17.73
2023-10-21T13:16:12.596Z,17.81
2023-10-21T13:18:43.528Z,17.02
2023-10-21T13:21:14.469Z,17.82
2023-10-21T13:23:45.254Z,18.07
2023-10-21T13:26:18.678Z,17.28
2023-10-21T13:28:49.418Z,16.80
2023-10-21T13:31:20.051Z,15.95
2023-10-21T13:33:50.734Z,15.16
2023-10-21T13:36:22.265Z,15.14
2023-10-21T13:38:53.327Z,14.62
2023-10-21T13:41:27.223Z,13.64
2023-10-21T13:44:00.547Z,13.09
2023-10-21T13:46:35.607Z,12.77
2023-10-21T13:49:11.438Z,12.69
2023-10-21T13:51:41.864Z,12.75
2023-10-21T13:54:14.800Z,12.73
2023-10-21T13:56:48.791Z,12.49
2023-10-21T13:59:20.628Z,13.29
2023-10-21T14:01:51.769Z,13.36
2023-10-21T14:04:24.635Z,13.37
2023-10-21T14:06:55.422Z,14.23
2023-10-21T14:09:30.457Z,14.74
2023-10-21T14:12:04.739Z,14.72
2023-10-21T14:14:35.628Z,14.91
2023-10-21T14:17:06.397Z,15.21
2023-10-21T14:19:36.720Z,15.27
2023-10-21T14:22:07.577Z,16.41
2023-10-21T14:24:38.179Z,16.58
2023-10-21T14:27:11.612Z,16.11
2023-10-21T14:29:42.073Z,16.58
2023-10-21T14:32:12.705Z,17.26
2023-10-21T14:34:43.223Z,17.03
2023-10-21T14:37:13.599Z,17.21
2023-10-21T14:39:44.070Z,17.64
2023-10-21T14:42:17.944Z,17.34
2023-10-21T14:44:48.694Z,17.42
2023-10-21T14:47:20.678Z,18.16
2023-10-21T14:49:50.950Z,18.22
2023-10-21T14:52:21.842Z,18.70
2023-10-21T14:54:53.611Z,18.68
2023-10-21T14:57:27.858Z,18.78
2023-10-21T15:00:00.014Z,19.16
2023-10-21T15:02:32.525Z,19.35
2023-10-21T15:05:05.958Z,19.72
2023-10-21T15:07:37.918Z,19.49
2023-10-21T15:10:11.951Z,19.31
2023-10-21T15:12:45.889Z,18.68
2023-10-21T15:15:16.880Z,20.08
2023-10-21T15:17:48.860Z,20.53
2023-10-21T15:20:21.241Z,20.99
2023-10-21T15:22:53.667Z,20.40
2023-10-21T15:25:24.682Z,21.22
2023-10-21T15:27:58.229Z,20.80
2023-10-21T15:30:28.943Z,21.28
2023-10-21T15:33:01.684Z,21.51
2023-10-21T15:35:32.798Z,21.94
2023-10-21T15:38:03.311Z,22.11
2023-10-21T15:40:33.641Z,22.43
2023-10-21T15:43:06.690Z,22.06
2023-10-21T15:45:34.425Z,22.81
2023-10-21T15:48:04.713Z,22.97
2023-10-21T15:50:35.063Z,23.45
2023-10-21T15:53:05.406Z,23.22
2023-10-21T15:55:38.601Z,23.76
2023-10-21T15:58:11.810Z,23.52
2023-10-21T16:00:42.138Z,22.91
2023-10-21T16:03:12.578Z,23.21
2023-10-21T16:05:43.010Z,22.92
2023-10-21T16:08:13.402Z,22.75
2023-10-21T16:10:43.957Z,23.06
2023-10-21T16:13:16.781Z,22.82
2023-10-21T16:15:47.135Z,22.72
2023-10-21T16:18:17.623Z,23.10
2023-10-21T16:20:47.895Z,22.84
2023-10-21T16:23:18.106Z,23.70
2023-10-21T16:25:49.056Z,23.29
2023-10-21T16:28:23.122Z,23.89
2023-10-21T16:30:53.399Z,24.25
2023-10-21T16:33:23.718Z,23.97
2023-10-21T16:35:54.142Z,24.40
2023-10-21T16:38:26.146Z,24.21
2023-10-21T16:40:56.416Z,25.13
2023-10-21T16:43:29.318Z,25.08
2023-10-21T16:45:59.663Z,25.12
2023-10-21T16:48:30.143Z,24.77
2023-10-21T16:51:00.465Z,25.17
2023-10-21T16:53:30.784Z,25.32
2023-10-21T16:56:01.207Z,25.57
2023-10-21T16:58:33.970Z,25.70
2023-10-21T17:01:04.301Z,26.07
2023-10-21T17:03:34.769Z,25.91
2023-10-21T17:06:05.133Z,26.46
2023-10-21T17:08:38.237Z,26.35
2023-10-21T17:11:08.858Z,26.61
2023-10-21T17:13:41.837Z,26.41
2023-10-21T17:16:12.223Z,27.07
2023-10-21T17:18:42.881Z,27.08
2023-10-21T17:21:13.118Z,26.78
2023-10-21T17:23:43.476Z,27.62
2023-10-21T17:26:13.756Z,27.02
2023-10-21T17:28:46.549Z,27.59
2023-10-21T17:31:16.875Z,28.31
2023-10-21T17:33:50.896Z,28.23
2023-10-21T17:36:22.795Z,28.45
2023-10-21T17:38:53.206Z,28.24
2023-10-21T17:41:23.413Z,28.09
2023-10-21T17:43:56.499Z,28.76
2023-10-21T17:46:29.104Z,28.82
2023-10-21T17:48:59.542Z,28.65
2023-10-21T17:51:29.840Z,29.28
2023-10-21T17:54:00.011Z,29.08
2023-10-21T17:56:30.274Z,29.39
2023-10-21T17:59:05.348Z,29.11
2023-10-21T18:04:43.563Z,29.47
2023-10-21T18:07:14.122Z,30.36
2023-10-21T18:09:45.426Z,30.23
2023-10-21T18:12:16.262Z,30.73
2023-10-21T18:14:49.301Z,30.10
2023-10-21T18:17:19.667Z,30.09
2023-10-21T18:19:50.252Z,30.22
2023-10-21T18:22:21.843Z,30.58
2023-10-21T18:24:54.510Z,30.62
2023-10-21T18:27:25.522Z,31.03
2023-10-21T18:29:58.914Z,31.09
2023-10-21T18:32:29.477Z,30.59
2023-10-21T18:34:59.870Z,31.69
2023-10-21T18:37:30.300Z,30.89
2023-10-21T18:40:00.756Z,31.29
2023-10-21T18:42:31.843Z,32.03
2023-10-21T18:45:06.918Z,31.86
2023-10-21T18:47:37.388Z,31.33
2023-10-21T18:50:08.282Z,32.19
2023-10-21T18:52:38.732Z,32.08
2023-10-21T18:55:10.280Z,32.25
2023-10-21T18:57:43.204Z,32.18
2023-10-21T19:00:16.821Z,32.61
2023-10-21T19:02:48.267Z,32.66
2023-10-21T19:05:19.192Z,32.65
2023-10-21T19:07:49.810Z,33.53
2023-10-21T19:10:25.317Z,33.45
2023-10-21T19:12:55.810Z,33.40
2023-10-21T19:15:29.640Z,33.44
2023-10-21T19:18:00.277Z,34.00
2023-10-21T19:20:30.956Z,33.63
2023-10-21T19:23:01.391Z,33.98
2023-10-21T19:25:31.972Z,33.87
2023-10-21T19:28:02.946Z,34.11
2023-10-21T19:30:36.793Z,34.29
2023-10-21T19:33:07.802Z,33.98
2023-10-21T19:35:38.602Z,34.21
2023-10-21T19:38:09.863Z,34.71
2023-10-21T19:40:41.189Z,34.85
2023-10-21T19:43:11.529Z,34.94
2023-10-21T19:45:47.026Z,34.22
2023-10-21T19:48:17.545Z,35.96
2023-10-21T19:50:48.813Z,35.27
2023-10-21T19:53:20.314Z,34.42
2023-10-21T19:55:56.859Z,33.18
2023-10-21T19:58:28.174Z,31.85
2023-10-21T20:01:06.180Z,31.03
2023-10-21T20:03:38.162Z,30.11
2023-10-21T20:06:09.606Z,29.43
2023-10-21T20:08:39.847Z,28.97
2023-10-21T20:11:12.452Z,29.23
2023-10-21T20:13:44.125Z,29.49
2023-10-21T20:16:17.779Z,29.31
2023-10-21T20:18:48.462Z,29.59
2023-10-21T20:21:19.667Z,27.79
2023-10-21T20:23:50.109Z,27.09
2023-10-21T20:26:20.459Z,26.79
2023-10-21T20:28:50.783Z,26.83
2023-10-21T20:31:23.772Z,27.12
2023-10-21T20:33:56.351Z,27.40
2023-10-21T20:36:27.086Z,27.63
2023-10-21T20:38:57.804Z,27.71
2023-10-21T20:41:29.027Z,27.88
2023-10-21T20:43:59.455Z,28.43
2023-10-21T20:46:33.831Z,28.36
2023-10-21T20:49:04.358Z,28.40
2023-10-21T20:51:35.898Z,28.91
2023-10-21T20:54:07.207Z,29.46
2023-10-21T20:56:37.822Z,29.09
2023-10-21T20:59:08.827Z,29.53
2023-10-21T21:01:42.896Z,30.12
2023-10-21T21:04:13.554Z,29.67
2023-10-21T21:06:44.303Z,30.57
2023-10-21T21:09:14.897Z,31.16
2023-10-21T21:11:45.524Z,31.10
2023-10-21T21:14:15.951Z,31.20
2023-10-21T21:16:48.950Z,30.91
2023-10-21T21:19:19.535Z,31.67
2023-10-21T21:21:54.192Z,31.74
2023-10-21T21:24:25.661Z,31.71
2023-10-21T21:26:56.120Z,32.52
2023-10-21T21:29:26.699Z,32.26
2023-10-21T21:31:59.776Z,32.64
2023-10-21T21:34:30.257Z,32.68
2023-10-21T21:37:00.831Z,32.66
2023-10-21T21:39:31.432Z,33.49
2023-10-21T21:42:02.023Z,33.85
2023-10-21T21:44:33.067Z,33.93
2023-10-21T21:47:06.214Z,34.86
2023-10-21T21:49:38.956Z,34.56
2023-10-21T21:52:09.692Z,33.94
2023-10-21T21:54:40.256Z,33.33
2023-10-21T21:57:10.939Z,32.53
2023-10-21T21:59:47.371Z,31.89
2023-10-21T22:02:21.274Z,32.19
2023-10-21T22:04:53.669Z,32.34
2023-10-21T22:07:24.289Z,32.55
2023-10-21T22:09:54.842Z,32.60
2023-10-21T22:12:25.529Z,33.10
2023-10-21T22:14:56.746Z,33.08
2023-10-21T22:17:30.687Z,32.90
2023-10-21T22:20:01.471Z,33.33
2023-10-21T22:22:32.485Z,34.01
2023-10-21T22:25:06.994Z,34.06
2023-10-21T22:27:37.434Z,34.43
2023-10-21T22:30:08.641Z,34.98
2023-10-21T22:32:41.845Z,34.80
2023-10-21T22:35:13.582Z,35.45
2023-10-21T22:37:44.030Z,34.87
2023-10-21T22:40:20.045Z,36.44
2023-10-21T22:42:50.474Z,36.01
2023-10-21T22:45:20.970Z,36.10
2023-10-21T22:47:54.064Z,36.52
2023-10-21T22:50:24.516Z,37.00
2023-10-21T22:52:55.159Z,36.79
2023-10-21T22:55:25.636Z,36.89
2023-10-21T22:57:56.081Z,37.33
2023-10-21T23:00:28.804Z,37.28
2023-10-21T23:03:02.939Z,37.42
2023-10-21T23:05:37.999Z,37.56
2023-10-21T23:08:16.252Z,38.12
2023-10-21T23:10:46.835Z,38.04
2023-10-21T23:13:17.729Z,38.64
2023-10-21T23:15:49.989Z,38.08
2023-10-21T23:18:24.414Z,38.13
2023-10-21T23:20:56.450Z,39.09
2023-10-21T23:23:26.921Z,38.66
2023-10-21T23:25:57.666Z,38.61
2023-10-21T23:28:29.513Z,39.04
2023-10-21T23:31:00.700Z,38.64
2023-10-21T23:33:34.192Z,38.78
2023-10-21T23:36:06.622Z,39.02
2023-10-21T23:38:37.418Z,39.16
2023-10-21T23:41:09.209Z,39.61
2023-10-21T23:43:39.947Z,39.13
2023-10-21T23:46:10.707Z,39.83
2023-10-21T23:48:45.103Z,39.59
2023-10-21T23:51:15.563Z,39.92
2023-10-21T23:53:46.107Z,39.64
2023-10-21T23:56:16.625Z,39.77
2023-10-21T23:58:46.975Z,40.00
